sensor_id;sensor_type;location;lat;lon;timestamp;pressure;altitude;pressure_sealevel;temperature;humidity
48892;BME280;50130;52.150;5.236;2022-09-09T00:00:11;100544.0;;;17.46;91.07
48892;BME280;50130;52.150;5.236;2022-09-09T00:01:52;100546.0;;;17.45;91.48
48892;BME280;50130;52.150;5.236;2022-09-09T00:03:40;100543.0;;;17.48;91.53
48892;BME280;50130;52.150;5.236;2022-09-09T00:05:24;100543.0;;;17.47;91.74
48892;BME280;50130;52.150;5.236;2022-09-09T00:07:10;100547.0;;;17.64;90.95
48892;BME280;50130;52.150;5.236;2022-09-09T00:10:40;100544.0;;;17.61;90.73
48892;BME280;50130;52.150;5.236;2022-09-09T00:12:25;100542.0;;;17.54;90.77
48892;BME280;50130;52.150;5.236;2022-09-09T00:14:18;100540.0;;;17.46;91.1
48892;BME280;50130;52.150;5.236;2022-09-09T00:16:01;100537.0;;;17.5;91.01
48892;BME280;50130;52.150;5.236;2022-09-09T00:17:46;100536.0;;;17.41;91.19
48892;BME280;50130;52.150;5.236;2022-09-09T00:21:16;100535.0;;;17.52;91.05
48892;BME280;50130;52.150;5.236;2022-09-09T00:22:58;100534.0;;;17.48;90.98
48892;BME280;50130;52.150;5.236;2022-09-09T00:24:43;100534.0;;;17.34;91.58
48892;BME280;50130;52.150;5.236;2022-09-09T00:26:26;100531.0;;;17.41;91.47
48892;BME280;50130;52.150;5.236;2022-09-09T00:28:13;100530.0;;;17.52;91.0
48892;BME280;50130;52.150;5.236;2022-09-09T00:31:37;100531.0;;;17.45;90.99
48892;BME280;50130;52.150;5.236;2022-09-09T00:33:19;100530.0;;;17.31;91.18
48892;BME280;50130;52.150;5.236;2022-09-09T00:34:58;100526.0;;;17.5;90.87
48892;BME280;50130;52.150;5.236;2022-09-09T00:36:38;100527.0;;;17.52;90.41
48892;BME280;50130;52.150;5.236;2022-09-09T00:39:59;100525.0;;;17.45;90.66
48892;BME280;50130;52.150;5.236;2022-09-09T00:41:47;100520.0;;;17.32;91.5
48892;BME280;50130;52.150;5.236;2022-09-09T00:43:39;100527.0;;;17.43;90.7
48892;BME280;50130;52.150;5.236;2022-09-09T00:45:33;100523.0;;;17.11;92.08
48892;BME280;50130;52.150;5.236;2022-09-09T00:47:53;100526.0;;;17.23;91.4
48892;BME280;50130;52.150;5.236;2022-09-09T00:49:38;100527.0;;;17.2;91.8
48892;BME280;50130;52.150;5.236;2022-09-09T00:51:28;100528.0;;;17.23;91.61
48892;BME280;50130;52.150;5.236;2022-09-09T00:53:22;100527.0;;;17.12;92.03
48892;BME280;50130;52.150;5.236;2022-09-09T00:57:01;100536.0;;;17.11;92.15
48892;BME280;50130;52.150;5.236;2022-09-09T00:58:42;100537.0;;;17.09;91.95
48892;BME280;50130;52.150;5.236;2022-09-09T01:00:29;100537.0;;;17.12;91.96
48892;BME280;50130;52.150;5.236;2022-09-09T01:02:15;100536.0;;;16.96;92.42
48892;BME280;50130;52.150;5.236;2022-09-09T01:03:55;100535.0;;;17.23;91.26
48892;BME280;50130;52.150;5.236;2022-09-09T01:07:17;100537.0;;;17.05;91.75
48892;BME280;50130;52.150;5.236;2022-09-09T01:09:04;100535.0;;;16.93;92.1
48892;BME280;50130;52.150;5.236;2022-09-09T01:10:58;100532.0;;;17.09;91.45
48892;BME280;50130;52.150;5.236;2022-09-09T01:12:38;100530.0;;;17.05;91.53
48892;BME280;50130;52.150;5.236;2022-09-09T01:14:29;100526.0;;;16.97;91.92
48892;BME280;50130;52.150;5.236;2022-09-09T01:16:10;100527.0;;;16.84;92.65
48892;BME280;50130;52.150;5.236;2022-09-09T01:19:40;100530.0;;;16.84;92.21
48892;BME280;50130;52.150;5.236;2022-09-09T01:21:32;100532.0;;;16.89;92.02
48892;BME280;50130;52.150;5.236;2022-09-09T01:23:27;100528.0;;;16.88;92.31
48892;BME280;50130;52.150;5.236;2022-09-09T01:26:13;100527.0;;;16.91;92.0
48892;BME280;50130;52.150;5.236;2022-09-09T01:27:51;100521.0;;;16.88;92.09
48892;BME280;50130;52.150;5.236;2022-09-09T01:29:31;100518.0;;;16.8;92.36
48892;BME280;50130;52.150;5.236;2022-09-09T01:31:11;100516.0;;;16.78;92.4
48892;BME280;50130;52.150;5.236;2022-09-09T01:32:53;100519.0;;;16.78;92.39
48892;BME280;50130;52.150;5.236;2022-09-09T01:36:23;100514.0;;;16.77;92.37
48892;BME280;50130;52.150;5.236;2022-09-09T01:38:00;100517.0;;;16.75;92.49
48892;BME280;50130;52.150;5.236;2022-09-09T01:39:39;100519.0;;;16.86;91.99
48892;BME280;50130;52.150;5.236;2022-09-09T01:41:18;100517.0;;;16.87;91.85
48892;BME280;50130;52.150;5.236;2022-09-09T01:44:33;100518.0;;;16.89;91.31
48892;BME280;50130;52.150;5.236;2022-09-09T01:46:11;100514.0;;;16.72;92.11
48892;BME280;50130;52.150;5.236;2022-09-09T01:47:49;100513.0;;;16.7;92.63
48892;BME280;50130;52.150;5.236;2022-09-09T01:51:03;100510.0;;;16.68;92.55
48892;BME280;50130;52.150;5.236;2022-09-09T01:52:39;100508.0;;;16.59;92.55
48892;BME280;50130;52.150;5.236;2022-09-09T01:54:16;100507.0;;;16.59;92.74
48892;BME280;50130;52.150;5.236;2022-09-09T01:56:02;100505.0;;;16.59;92.6
48892;BME280;50130;52.150;5.236;2022-09-09T01:59:45;100505.0;;;16.54;92.53
48892;BME280;50130;52.150;5.236;2022-09-09T02:01:34;100497.0;;;16.63;92.12
48892;BME280;50130;52.150;5.236;2022-09-09T02:03:20;100493.0;;;16.45;92.83
48892;BME280;50130;52.150;5.236;2022-09-09T02:05:10;100493.0;;;16.48;92.66
48892;BME280;50130;52.150;5.236;2022-09-09T02:06:55;100492.0;;;16.4;92.93
48892;BME280;50130;52.150;5.236;2022-09-09T02:08:36;100490.0;;;16.46;92.51
48892;BME280;50130;52.150;5.236;2022-09-09T02:12:08;100489.0;;;16.48;92.76
48892;BME280;50130;52.150;5.236;2022-09-09T02:13:49;100489.0;;;16.43;92.54
48892;BME280;50130;52.150;5.236;2022-09-09T02:15:33;100485.0;;;16.46;92.59
48892;BME280;50130;52.150;5.236;2022-09-09T02:17:18;100482.0;;;16.34;93.0
48892;BME280;50130;52.150;5.236;2022-09-09T02:19:02;100484.0;;;16.5;92.21
48892;BME280;50130;52.150;5.236;2022-09-09T02:22:22;100483.0;;;16.61;91.72
48892;BME280;50130;52.150;5.236;2022-09-09T02:24:03;100483.0;;;16.56;91.75
48892;BME280;50130;52.150;5.236;2022-09-09T02:25:41;100483.0;;;16.4;92.43
48892;BME280;50130;52.150;5.236;2022-09-09T02:27:20;100480.0;;;16.34;92.62
48892;BME280;50130;52.150;5.236;2022-09-09T02:30:39;100484.0;;;16.46;92.41
48892;BME280;50130;52.150;5.236;2022-09-09T02:32:20;100487.0;;;16.43;92.4
48892;BME280;50130;52.150;5.236;2022-09-09T02:34:00;100484.0;;;16.46;92.42
48892;BME280;50130;52.150;5.236;2022-09-09T02:35:39;100478.0;;;16.43;92.27
48892;BME280;50130;52.150;5.236;2022-09-09T02:38:58;100482.0;;;16.48;91.95
48892;BME280;50130;52.150;5.236;2022-09-09T02:40:35;100482.0;;;16.36;92.21
48892;BME280;50130;52.150;5.236;2022-09-09T02:42:11;100483.0;;;16.34;92.75
48892;BME280;50130;52.150;5.236;2022-09-09T02:45:27;100484.0;;;16.38;92.46
48892;BME280;50130;52.150;5.236;2022-09-09T02:47:19;100480.0;;;16.37;92.47
48892;BME280;50130;52.150;5.236;2022-09-09T02:49:03;100480.0;;;16.4;92.24
48892;BME280;50130;52.150;5.236;2022-09-09T02:50:50;100480.0;;;16.43;92.19
48892;BME280;50130;52.150;5.236;2022-09-09T02:52:38;100481.0;;;16.28;92.91
48892;BME280;50130;52.150;5.236;2022-09-09T02:56:05;100480.0;;;16.28;92.75
48892;BME280;50130;52.150;5.236;2022-09-09T02:57:48;100476.0;;;16.16;93.51
48892;BME280;50130;52.150;5.236;2022-09-09T02:59:26;100476.0;;;16.2;93.1
48892;BME280;50130;52.150;5.236;2022-09-09T03:01:03;100478.0;;;16.2;93.35
48892;BME280;50130;52.150;5.236;2022-09-09T03:04:15;100475.0;;;16.18;93.24
48892;BME280;50130;52.150;5.236;2022-09-09T03:05:52;100476.0;;;16.11;93.78
48892;BME280;50130;52.150;5.236;2022-09-09T03:07:28;100475.0;;;16.14;93.56
48892;BME280;50130;52.150;5.236;2022-09-09T03:09:04;100473.0;;;16.25;93.09
48892;BME280;50130;52.150;5.236;2022-09-09T03:12:16;100474.0;;;16.31;92.8
48892;BME280;50130;52.150;5.236;2022-09-09T03:13:53;100474.0;;;16.27;92.81
48892;BME280;50130;52.150;5.236;2022-09-09T03:15:31;100472.0;;;16.38;92.49
48892;BME280;50130;52.150;5.236;2022-09-09T03:18:46;100469.0;;;16.22;93.31
48892;BME280;50130;52.150;5.236;2022-09-09T03:20:22;100466.0;;;16.12;93.35
48892;BME280;50130;52.150;5.236;2022-09-09T03:22:00;100465.0;;;16.25;92.96
48892;BME280;50130;52.150;5.236;2022-09-09T03:25:12;100469.0;;;16.28;92.76
48892;BME280;50130;52.150;5.236;2022-09-09T03:26:50;100468.0;;;16.32;92.36
48892;BME280;50130;52.150;5.236;2022-09-09T03:28:31;100466.0;;;16.21;92.81
48892;BME280;50130;52.150;5.236;2022-09-09T03:30:08;100468.0;;;16.12;93.09
48892;BME280;50130;52.150;5.236;2022-09-09T03:33:20;100467.0;;;16.18;92.58
48892;BME280;50130;52.150;5.236;2022-09-09T03:34:56;100470.0;;;16.36;91.75
48892;BME280;50130;52.150;5.236;2022-09-09T03:36:33;100471.0;;;16.32;91.61
48892;BME280;50130;52.150;5.236;2022-09-09T03:39:46;100471.0;;;16.25;92.04
48892;BME280;50130;52.150;5.236;2022-09-09T03:41:24;100467.0;;;16.07;92.64
48892;BME280;50130;52.150;5.236;2022-09-09T03:43:01;100469.0;;;16.11;92.79
48892;BME280;50130;52.150;5.236;2022-09-09T03:44:37;100468.0;;;16.07;92.9
48892;BME280;50130;52.150;5.236;2022-09-09T03:47:50;100471.0;;;16.09;92.69
48892;BME280;50130;52.150;5.236;2022-09-09T03:49:28;100470.0;;;16.05;92.76
48892;BME280;50130;52.150;5.236;2022-09-09T03:51:05;100461.0;;;15.98;93.0
48892;BME280;50130;52.150;5.236;2022-09-09T03:54:18;100461.0;;;15.9;93.41
48892;BME280;50130;52.150;5.236;2022-09-09T03:55:56;100462.0;;;16.09;92.9
48892;BME280;50130;52.150;5.236;2022-09-09T03:57:35;100463.0;;;16.02;92.82
48892;BME280;50130;52.150;5.236;2022-09-09T04:00:53;100465.0;;;16.02;92.82
48892;BME280;50130;52.150;5.236;2022-09-09T04:02:30;100466.0;;;16.06;92.53
48892;BME280;50130;52.150;5.236;2022-09-09T04:04:08;100464.0;;;16.06;92.58
48892;BME280;50130;52.150;5.236;2022-09-09T04:05:48;100465.0;;;16.09;92.54
48892;BME280;50130;52.150;5.236;2022-09-09T04:09:03;100462.0;;;16.22;92.08
48892;BME280;50130;52.150;5.236;2022-09-09T04:10:39;100461.0;;;16.0;92.91
48892;BME280;50130;52.150;5.236;2022-09-09T04:12:16;100460.0;;;15.98;93.08
48892;BME280;50130;52.150;5.236;2022-09-09T04:13:52;100458.0;;;16.02;92.89
48892;BME280;50130;52.150;5.236;2022-09-09T04:17:06;100457.0;;;16.09;92.59
48892;BME280;50130;52.150;5.236;2022-09-09T04:18:42;100450.0;;;16.05;92.56
48892;BME280;50130;52.150;5.236;2022-09-09T04:20:19;100449.0;;;15.87;93.34
48892;BME280;50130;52.150;5.236;2022-09-09T04:23:31;100448.0;;;15.9;93.25
48892;BME280;50130;52.150;5.236;2022-09-09T04:25:08;100455.0;;;15.85;93.47
48892;BME280;50130;52.150;5.236;2022-09-09T04:26:45;100447.0;;;15.81;94.03
48892;BME280;50130;52.150;5.236;2022-09-09T04:30:01;100450.0;;;15.92;93.72
48892;BME280;50130;52.150;5.236;2022-09-09T04:31:41;100444.0;;;15.91;93.94
48892;BME280;50130;52.150;5.236;2022-09-09T04:33:18;100442.0;;;15.87;93.95
48892;BME280;50130;52.150;5.236;2022-09-09T04:34:54;100444.0;;;15.83;94.4
48892;BME280;50130;52.150;5.236;2022-09-09T04:38:09;100446.0;;;15.91;93.92
48892;BME280;50130;52.150;5.236;2022-09-09T04:39:45;100442.0;;;15.92;93.84
48892;BME280;50130;52.150;5.236;2022-09-09T04:41:21;100438.0;;;15.9;93.72
48892;BME280;50130;52.150;5.236;2022-09-09T04:44:35;100436.0;;;15.93;93.67
48892;BME280;50130;52.150;5.236;2022-09-09T04:46:11;100435.0;;;16.02;93.49
48892;BME280;50130;52.150;5.236;2022-09-09T04:47:47;100433.0;;;16.02;93.16
48892;BME280;50130;52.150;5.236;2022-09-09T04:51:01;100433.0;;;16.04;92.8
48892;BME280;50130;52.150;5.236;2022-09-09T04:52:37;100430.0;;;15.96;93.24
48892;BME280;50130;52.150;5.236;2022-09-09T04:54:14;100434.0;;;16.05;92.55
48892;BME280;50130;52.150;5.236;2022-09-09T04:55:50;100437.0;;;16.09;92.36
48892;BME280;50130;52.150;5.236;2022-09-09T04:59:03;100441.0;;;16.02;93.02
48892;BME280;50130;52.150;5.236;2022-09-09T05:00:38;100439.0;;;16.06;92.73
48892;BME280;50130;52.150;5.236;2022-09-09T05:02:14;100435.0;;;15.95;93.3
48892;BME280;50130;52.150;5.236;2022-09-09T05:05:28;100433.0;;;16.02;92.95
48892;BME280;50130;52.150;5.236;2022-09-09T05:07:04;100439.0;;;16.06;92.72
48892;BME280;50130;52.150;5.236;2022-09-09T05:08:41;100438.0;;;16.04;92.81
48892;BME280;50130;52.150;5.236;2022-09-09T05:11:57;100437.0;;;15.94;93.05
48892;BME280;50130;52.150;5.236;2022-09-09T05:13:34;100433.0;;;15.99;93.0
48892;BME280;50130;52.150;5.236;2022-09-09T05:15:10;100435.0;;;15.91;93.65
48892;BME280;50130;52.150;5.236;2022-09-09T05:16:47;100430.0;;;16.0;93.31
48892;BME280;50130;52.150;5.236;2022-09-09T05:20:00;100424.0;;;15.99;93.28
48892;BME280;50130;52.150;5.236;2022-09-09T05:21:36;100422.0;;;16.02;93.26
48892;BME280;50130;52.150;5.236;2022-09-09T05:23:13;100418.0;;;16.0;93.57
48892;BME280;50130;52.150;5.236;2022-09-09T05:26:26;100420.0;;;15.99;93.41
48892;BME280;50130;52.150;5.236;2022-09-09T05:28:02;100420.0;;;15.87;93.98
48892;BME280;50130;52.150;5.236;2022-09-09T05:29:38;100427.0;;;15.81;94.64
48892;BME280;50130;52.150;5.236;2022-09-09T05:32:55;100432.0;;;15.8;94.67
48892;BME280;50130;52.150;5.236;2022-09-09T05:34:32;100430.0;;;15.78;94.84
48892;BME280;50130;52.150;5.236;2022-09-09T05:36:10;100436.0;;;16.0;93.94
48892;BME280;50130;52.150;5.236;2022-09-09T05:37:47;100430.0;;;15.96;93.93
48892;BME280;50130;52.150;5.236;2022-09-09T05:41:01;100425.0;;;15.91;94.06
48892;BME280;50130;52.150;5.236;2022-09-09T05:42:37;100424.0;;;15.88;94.4
48892;BME280;50130;52.150;5.236;2022-09-09T05:44:13;100418.0;;;15.91;94.44
48892;BME280;50130;52.150;5.236;2022-09-09T05:47:35;100417.0;;;15.93;94.47
48892;BME280;50130;52.150;5.236;2022-09-09T05:49:12;100415.0;;;15.85;95.04
48892;BME280;50130;52.150;5.236;2022-09-09T05:50:52;100419.0;;;15.92;94.75
48892;BME280;50130;52.150;5.236;2022-09-09T05:52:29;100424.0;;;16.09;93.94
48892;BME280;50130;52.150;5.236;2022-09-09T05:55:42;100432.0;;;16.02;94.06
48892;BME280;50130;52.150;5.236;2022-09-09T05:57:19;100434.0;;;15.95;94.87
48892;BME280;50130;52.150;5.236;2022-09-09T05:58:56;100433.0;;;16.04;94.36
48892;BME280;50130;52.150;5.236;2022-09-09T06:02:09;100435.0;;;16.2;93.92
48892;BME280;50130;52.150;5.236;2022-09-09T06:03:46;100437.0;;;16.12;94.18
48892;BME280;50130;52.150;5.236;2022-09-09T06:05:23;100435.0;;;16.2;93.98
48892;BME280;50130;52.150;5.236;2022-09-09T06:07:01;100437.0;;;16.25;93.91
48892;BME280;50130;52.150;5.236;2022-09-09T06:10:16;100439.0;;;16.16;94.32
48892;BME280;50130;52.150;5.236;2022-09-09T06:11:54;100440.0;;;16.18;94.4
48892;BME280;50130;52.150;5.236;2022-09-09T06:13:30;100434.0;;;16.18;94.65
48892;BME280;50130;52.150;5.236;2022-09-09T06:16:46;100436.0;;;16.11;95.05
48892;BME280;50130;52.150;5.236;2022-09-09T06:18:22;100433.0;;;16.11;95.18
48892;BME280;50130;52.150;5.236;2022-09-09T06:19:59;100430.0;;;16.15;95.25
48892;BME280;50130;52.150;5.236;2022-09-09T06:21:36;100428.0;;;16.3;94.76
48892;BME280;50130;52.150;5.236;2022-09-09T06:24:49;100427.0;;;16.13;95.46
48892;BME280;50130;52.150;5.236;2022-09-09T06:26:26;100428.0;;;16.2;95.41
48892;BME280;50130;52.150;5.236;2022-09-09T06:28:03;100430.0;;;16.27;95.58
48892;BME280;50130;52.150;5.236;2022-09-09T06:31:18;100428.0;;;16.25;95.51
48892;BME280;50130;52.150;5.236;2022-09-09T06:32:56;100430.0;;;16.3;95.84
48892;BME280;50130;52.150;5.236;2022-09-09T06:34:32;100428.0;;;16.38;95.59
48892;BME280;50130;52.150;5.236;2022-09-09T06:36:11;100422.0;;;16.48;95.27
48892;BME280;50130;52.150;5.236;2022-09-09T06:39:24;100426.0;;;16.57;95.22
48892;BME280;50130;52.150;5.236;2022-09-09T06:41:02;100431.0;;;16.73;94.58
48892;BME280;50130;52.150;5.236;2022-09-09T06:42:38;100422.0;;;16.64;94.55
48892;BME280;50130;52.150;5.236;2022-09-09T06:45:53;100421.0;;;16.75;94.58
48892;BME280;50130;52.150;5.236;2022-09-09T06:47:30;100427.0;;;16.77;94.82
48892;BME280;50130;52.150;5.236;2022-09-09T06:49:07;100423.0;;;16.75;95.01
48892;BME280;50130;52.150;5.236;2022-09-09T06:52:19;100420.0;;;16.8;95.12
48892;BME280;50130;52.150;5.236;2022-09-09T06:53:57;100421.0;;;16.8;95.23
48892;BME280;50130;52.150;5.236;2022-09-09T06:55:35;100424.0;;;16.86;95.17
48892;BME280;50130;52.150;5.236;2022-09-09T06:57:11;100425.0;;;17.0;95.03
48892;BME280;50130;52.150;5.236;2022-09-09T07:00:26;100423.0;;;16.95;94.83
48892;BME280;50130;52.150;5.236;2022-09-09T07:02:03;100423.0;;;17.06;94.28
48892;BME280;50130;52.150;5.236;2022-09-09T07:03:39;100425.0;;;17.25;94.04
48892;BME280;50130;52.150;5.236;2022-09-09T07:06:52;100430.0;;;17.23;93.87
48892;BME280;50130;52.150;5.236;2022-09-09T07:08:28;100427.0;;;17.27;94.0
48892;BME280;50130;52.150;5.236;2022-09-09T07:10:05;100430.0;;;17.37;93.76
48892;BME280;50130;52.150;5.236;2022-09-09T07:11:43;100427.0;;;17.43;93.38
48892;BME280;50130;52.150;5.236;2022-09-09T07:15:01;100430.0;;;17.52;92.64
48892;BME280;50130;52.150;5.236;2022-09-09T07:16:37;100434.0;;;17.59;93.17
48892;BME280;50130;52.150;5.236;2022-09-09T07:18:13;100426.0;;;17.66;92.07
48892;BME280;50130;52.150;5.236;2022-09-09T07:21:28;100430.0;;;17.84;91.7
48892;BME280;50130;52.150;5.236;2022-09-09T07:23:04;100420.0;;;17.89;90.82
48892;BME280;50130;52.150;5.236;2022-09-09T07:24:40;100434.0;;;17.98;90.56
48892;BME280;50130;52.150;5.236;2022-09-09T07:27:57;100433.0;;;17.98;90.24
48892;BME280;50130;52.150;5.236;2022-09-09T07:29:33;100431.0;;;18.21;89.45
48892;BME280;50130;52.150;5.236;2022-09-09T07:32:51;100440.0;;;18.3;88.19
48892;BME280;50130;52.150;5.236;2022-09-09T07:36:06;100442.0;;;18.36;87.78
48892;BME280;50130;52.150;5.236;2022-09-09T07:37:43;100441.0;;;18.41;86.9
48892;BME280;50130;52.150;5.236;2022-09-09T07:39:20;100443.0;;;18.31;86.5
48892;BME280;50130;52.150;5.236;2022-09-09T07:42:39;100437.0;;;18.2;87.13
48892;BME280;50130;52.150;5.236;2022-09-09T07:44:18;100443.0;;;18.28;87.64
48892;BME280;50130;52.150;5.236;2022-09-09T07:45:57;100443.0;;;18.3;87.46
48892;BME280;50130;52.150;5.236;2022-09-09T07:47:34;100448.0;;;18.46;86.74
48892;BME280;50130;52.150;5.236;2022-09-09T07:50:47;100450.0;;;18.45;86.27
48892;BME280;50130;52.150;5.236;2022-09-09T07:52:23;100445.0;;;18.31;86.18
48892;BME280;50130;52.150;5.236;2022-09-09T07:54:01;100444.0;;;18.36;86.75
48892;BME280;50130;52.150;5.236;2022-09-09T07:55:38;100446.0;;;18.43;86.23
48892;BME280;50130;52.150;5.236;2022-09-09T07:58:53;100446.0;;;18.59;86.0
48892;BME280;50130;52.150;5.236;2022-09-09T08:00:30;100442.0;;;18.66;85.44
48892;BME280;50130;52.150;5.236;2022-09-09T08:02:08;100442.0;;;18.66;86.11
48892;BME280;50130;52.150;5.236;2022-09-09T08:05:28;100442.0;;;18.68;85.32
48892;BME280;50130;52.150;5.236;2022-09-09T08:07:04;100438.0;;;18.77;84.87
48892;BME280;50130;52.150;5.236;2022-09-09T08:08:41;100438.0;;;18.62;84.65
48892;BME280;50130;52.150;5.236;2022-09-09T08:10:18;100444.0;;;18.59;85.28
48892;BME280;50130;52.150;5.236;2022-09-09T08:13:34;100442.0;;;18.61;85.37
48892;BME280;50130;52.150;5.236;2022-09-09T08:15:11;100447.0;;;18.68;85.08
48892;BME280;50130;52.150;5.236;2022-09-09T08:16:49;100442.0;;;18.73;85.03
48892;BME280;50130;52.150;5.236;2022-09-09T08:20:06;100443.0;;;18.79;85.55
48892;BME280;50130;52.150;5.236;2022-09-09T08:21:43;100445.0;;;18.75;85.16
48892;BME280;50130;52.150;5.236;2022-09-09T08:23:21;100446.0;;;18.71;84.2
48892;BME280;50130;52.150;5.236;2022-09-09T08:24:58;100445.0;;;18.71;84.92
48892;BME280;50130;52.150;5.236;2022-09-09T08:28:12;100447.0;;;18.73;83.5
48892;BME280;50130;52.150;5.236;2022-09-09T08:29:48;100449.0;;;18.71;83.78
48892;BME280;50130;52.150;5.236;2022-09-09T08:31:27;100450.0;;;18.73;83.29
48892;BME280;50130;52.150;5.236;2022-09-09T08:34:41;100458.0;;;18.75;83.41
48892;BME280;50130;52.150;5.236;2022-09-09T08:36:20;100455.0;;;18.84;83.74
48892;BME280;50130;52.150;5.236;2022-09-09T08:37:58;100455.0;;;18.73;82.97
48892;BME280;50130;52.150;5.236;2022-09-09T08:39:34;100466.0;;;18.7;83.34
48892;BME280;50130;52.150;5.236;2022-09-09T08:43:43;100459.0;;;18.75;83.21
48892;BME280;50130;52.150;5.236;2022-09-09T08:45:28;100464.0;;;18.75;82.68
48892;BME280;50130;52.150;5.236;2022-09-09T08:47:15;100463.0;;;18.84;82.72
48892;BME280;50130;52.150;5.236;2022-09-09T08:49:03;100464.0;;;18.79;82.85
48892;BME280;50130;52.150;5.236;2022-09-09T08:50:44;100466.0;;;18.84;83.15
48892;BME280;50130;52.150;5.236;2022-09-09T08:52:23;100468.0;;;18.96;82.28
48892;BME280;50130;52.150;5.236;2022-09-09T08:55:44;100470.0;;;18.91;82.4
48892;BME280;50130;52.150;5.236;2022-09-09T08:57:24;100462.0;;;18.91;82.54
48892;BME280;50130;52.150;5.236;2022-09-09T08:59:04;100474.0;;;19.0;82.29
48892;BME280;50130;52.150;5.236;2022-09-09T09:01:02;100468.0;;;18.93;82.34
48892;BME280;50130;52.150;5.236;2022-09-09T09:02:53;100470.0;;;18.87;83.0
48892;BME280;50130;52.150;5.236;2022-09-09T09:06:38;100474.0;;;18.84;82.75
48892;BME280;50130;52.150;5.236;2022-09-09T09:08:26;100472.0;;;18.82;82.86
48892;BME280;50130;52.150;5.236;2022-09-09T09:10:12;100471.0;;;18.89;82.39
48892;BME280;50130;52.150;5.236;2022-09-09T09:12:01;100476.0;;;18.93;82.16
48892;BME280;50130;52.150;5.236;2022-09-09T09:13:47;100475.0;;;18.93;82.32
48892;BME280;50130;52.150;5.236;2022-09-09T09:15:32;100465.0;;;18.82;82.57
48892;BME280;50130;52.150;5.236;2022-09-09T09:17:14;100481.0;;;18.75;82.4
48892;BME280;50130;52.150;5.236;2022-09-09T09:20:37;100476.0;;;18.87;82.22
48892;BME280;50130;52.150;5.236;2022-09-09T09:22:22;100477.0;;;18.95;82.15
48892;BME280;50130;52.150;5.236;2022-09-09T09:24:00;100480.0;;;19.05;81.72
48892;BME280;50130;52.150;5.236;2022-09-09T09:25:39;100482.0;;;19.03;81.16
48892;BME280;50130;52.150;5.236;2022-09-09T09:29:12;100482.0;;;18.87;81.72
48892;BME280;50130;52.150;5.236;2022-09-09T09:30:50;100488.0;;;18.75;82.69
48892;BME280;50130;52.150;5.236;2022-09-09T09:32:33;100487.0;;;18.68;82.7
48892;BME280;50130;52.150;5.236;2022-09-09T09:34:12;100484.0;;;18.88;82.62
48892;BME280;50130;52.150;5.236;2022-09-09T09:37:28;100481.0;;;18.95;82.34
48892;BME280;50130;52.150;5.236;2022-09-09T09:39:06;100485.0;;;18.95;82.36
48892;BME280;50130;52.150;5.236;2022-09-09T09:40:49;100483.0;;;18.97;81.86
48892;BME280;50130;52.150;5.236;2022-09-09T09:42:29;100483.0;;;19.06;82.08
48892;BME280;50130;52.150;5.236;2022-09-09T09:46:00;100483.0;;;18.89;82.21
48892;BME280;50130;52.150;5.236;2022-09-09T09:47:41;100491.0;;;19.06;82.03
48892;BME280;50130;52.150;5.236;2022-09-09T09:49:17;100490.0;;;19.0;82.79
48892;BME280;50130;52.150;5.236;2022-09-09T09:50:56;100494.0;;;19.05;84.37
48892;BME280;50130;52.150;5.236;2022-09-09T09:54:18;100496.0;;;18.87;86.3
48892;BME280;50130;52.150;5.236;2022-09-09T09:56:01;100495.0;;;18.73;87.59
48892;BME280;50130;52.150;5.236;2022-09-09T09:57:39;100490.0;;;18.71;88.3
48892;BME280;50130;52.150;5.236;2022-09-09T09:59:21;100489.0;;;18.72;89.69
48892;BME280;50130;52.150;5.236;2022-09-09T10:01:20;100485.0;;;18.71;90.75
48892;BME280;50130;52.150;5.236;2022-09-09T10:04:36;100482.0;;;18.53;90.41
48892;BME280;50130;52.150;5.236;2022-09-09T10:06:12;100480.0;;;18.47;90.75
48892;BME280;50130;52.150;5.236;2022-09-09T10:08:00;100483.0;;;18.48;92.1
48892;BME280;50130;52.150;5.236;2022-09-09T10:09:37;100482.0;;;18.52;91.26
48892;BME280;50130;52.150;5.236;2022-09-09T10:13:11;100481.0;;;18.5;91.17
48892;BME280;50130;52.150;5.236;2022-09-09T10:14:56;100482.0;;;18.52;91.5
48892;BME280;50130;52.150;5.236;2022-09-09T10:16:48;100480.0;;;18.59;91.53
48892;BME280;50130;52.150;5.236;2022-09-09T10:18:40;100480.0;;;18.61;91.71
48892;BME280;50130;52.150;5.236;2022-09-09T10:20:32;100478.0;;;18.66;91.83
48892;BME280;50130;52.150;5.236;2022-09-09T10:22:22;100480.0;;;18.62;90.05
48892;BME280;50130;52.150;5.236;2022-09-09T10:26:12;100480.0;;;18.63;89.77
48892;BME280;50130;52.150;5.236;2022-09-09T10:28:33;100485.0;;;18.59;89.69
48892;BME280;50130;52.150;5.236;2022-09-09T10:31:05;100490.0;;;18.41;91.27
48892;BME280;50130;52.150;5.236;2022-09-09T10:33:00;100496.0;;;18.32;92.61
48892;BME280;50130;52.150;5.236;2022-09-09T10:34:55;100497.0;;;18.3;92.2
48892;BME280;50130;52.150;5.236;2022-09-09T10:38:16;100489.0;;;18.36;93.45
48892;BME280;50130;52.150;5.236;2022-09-09T10:40:02;100490.0;;;18.37;93.65
48892;BME280;50130;52.150;5.236;2022-09-09T10:41:58;100486.0;;;18.55;93.84
48892;BME280;50130;52.150;5.236;2022-09-09T10:43:49;100477.0;;;18.72;94.62
48892;BME280;50130;52.150;5.236;2022-09-09T10:45:41;100474.0;;;18.8;94.28
48892;BME280;50130;52.150;5.236;2022-09-09T10:47:40;100471.0;;;18.8;93.89
48892;BME280;50130;52.150;5.236;2022-09-09T10:49:35;100473.0;;;18.87;93.8
48892;BME280;50130;52.150;5.236;2022-09-09T10:51:24;100473.0;;;18.95;92.47
48892;BME280;50130;52.150;5.236;2022-09-09T10:54:57;100472.0;;;18.79;91.76
48892;BME280;50130;52.150;5.236;2022-09-09T10:56:36;100470.0;;;18.81;92.02
48892;BME280;50130;52.150;5.236;2022-09-09T10:58:19;100466.0;;;18.78;93.0
48892;BME280;50130;52.150;5.236;2022-09-09T11:00:04;100470.0;;;18.93;93.52
48892;BME280;50130;52.150;5.236;2022-09-09T11:03:25;100472.0;;;19.11;92.39
48892;BME280;50130;52.150;5.236;2022-09-09T11:05:08;100472.0;;;19.09;91.44
48892;BME280;50130;52.150;5.236;2022-09-09T11:06:54;100471.0;;;19.16;92.63
48892;BME280;50130;52.150;5.236;2022-09-09T11:08:34;100466.0;;;19.2;91.55